William — WDF2392 — position and weather

sailwx.info

Track history (hours):
 
Tides and Currents Weather Stations Pressure Air Temp Water Temp Dewpoint Dewpoint Depression Visibility Wind Speed Wind Dir Waves Ship Positions

William

Owner: Enterprise Marine Services, LLC, San Antonio, TX. More information available from US FCC via Universal Licensing System and Coast Guard Vessel Documentation Center.

Last reported at 2018-Jun-20 05:05 UTC. Time now 2018-Jun-20 08:50 UTC.
Position N 29°33' W 090°26'.

Length 22 m; draft 2.7 m.

Type: Towing. MMSI: 367423260.

Date/timePositionNaut miles runAvg speedWind from/ knotsBaromVisibWave heightAir tempDewpointWater temp
2018-Jun-20 05:05N 29°33' W 090°26'2 5.9
2018-Jun-20 04:46N 29°34' W 090°28'2 6.6
2018-Jun-20 04:30N 29°34' W 090°30'3 6.5
2018-Jun-20 04:00N 29°34' W 090°34'3 5.2
2018-Jun-20 03:30N 29°35' W 090°37'3 6.3
2018-Jun-20 03:00N 29°36' W 090°40'2 4.3
2018-Jun-20 02:30N 29°36' W 090°43'3 5.0
2018-Jun-20 02:00N 29°34' W 090°44'1 1.4
2018-Jun-20 01:30N 29°34' W 090°44'1 1.5
2018-Jun-20 01:01N 29°33' W 090°45'0 0.7
2018-Jun-20 00:30N 29°33' W 090°45'1 1.8
2018-Jun-20 00:00N 29°32' W 090°46'65 4.7
2018-Jun-19 10:12N 29°50' W 091°57'1 6.4
2018-Jun-19 10:00N 29°50' W 091°59'3 6.8
2018-Jun-19 09:30N 29°49' W 092°02'3 6.1
2018-Jun-19 09:00N 29°48' W 092°06'3 5.8
2018-Jun-19 08:31N 29°47' W 092°09'2 4.9
2018-Jun-19 08:00N 29°47' W 092°12'1 2.5
2018-Jun-19 07:30N 29°47' W 092°13'1 1.1
2018-Jun-19 07:00N 29°48' W 092°14'0 0.0
2018-Jun-19 06:30N 29°48' W 092°14'0 0.0
2018-Jun-19 06:00N 29°48' W 092°14'0 0.4
2018-Jun-19 05:30N 29°48' W 092°14'0 0.6
2018-Jun-19 05:00N 29°48' W 092°14'1 1.0
2018-Jun-19 04:30N 29°48' W 092°15'0 0.0
2018-Jun-19 04:00N 29°48' W 092°15'0 0.0
2018-Jun-19 03:26N 29°48' W 092°15'0 0.0
2018-Jun-19 03:00N 29°48' W 092°15'0 0.0
2018-Jun-19 02:30N 29°48' W 092°15'0 0.7
2018-Jun-19 02:00N 29°48' W 092°15'0 0.9
2018-Jun-19 01:30N 29°48' W 092°16'0 0.9
2018-Jun-19 01:00N 29°49' W 092°16'0 0.0
2018-Jun-19 00:30N 29°49' W 092°16'0 0.0
2018-Jun-19 00:00N 29°49' W 092°16'0 0.0
2018-Jun-18 23:30N 29°49' W 092°16'0 0.0
2018-Jun-18 23:00N 29°49' W 092°16'1 1.1
2018-Jun-18 22:30N 29°49' W 092°17'0 0.2
2018-Jun-18 22:00N 29°49' W 092°17'0 0.0
2018-Jun-18 21:30N 29°49' W 092°17'0 0.1
2018-Jun-18 21:00N 29°49' W 092°17'2 3.2
2018-Jun-18 20:30N 29°50' W 092°18'0 0.2
2018-Jun-18 20:00N 29°50' W 092°18'0 0.0
2018-Jun-18 19:24N 29°50' W 092°18'0 0.1
2018-Jun-18 19:00N 29°50' W 092°18'0 0.0
2018-Jun-18 18:30N 29°50' W 092°18'1 1.2
2018-Jun-18 17:58N 29°50' W 092°19'1 3.1
2018-Jun-18 17:30N 29°51' W 092°20'41 5.6
2018-Jun-18 10:12N 29°56' W 093°07'1 5.4
2018-Jun-18 10:00N 29°56' W 093°08'3 5.0
2018-Jun-18 09:30N 29°57' W 093°11'3 5.0
2018-Jun-18 09:00N 29°59' W 093°12'3 5.2
2018-Jun-18 08:30N 30°01' W 093°14'2 3.5
2018-Jun-18 08:00N 30°02' W 093°16'2 3.4
2018-Jun-18 07:30N 30°04' W 093°16'2 3.7
2018-Jun-18 07:00N 30°05' W 093°18'0 0.5
2018-Jun-18 06:30N 30°05' W 093°18'0 1.0
2018-Jun-18 06:00N 30°06' W 093°18'0 0.0
2018-Jun-18 05:30N 30°06' W 093°18'0 0.0
2018-Jun-18 05:00N 30°06' W 093°18'0 0.0
2018-Jun-18 04:30N 30°06' W 093°18'0 0.0
2018-Jun-18 04:00N 30°06' W 093°18'0 0.0
2018-Jun-18 03:30N 30°06' W 093°18'0 0.0
2018-Jun-18 03:00N 30°06' W 093°18'0 0.1
2018-Jun-18 02:30N 30°06' W 093°18'0 0.0
2018-Jun-18 02:00N 30°06' W 093°18'0 0.0
2018-Jun-18 01:30N 30°06' W 093°18'0 0.0
2018-Jun-18 01:00N 30°06' W 093°18'0 0.0
2018-Jun-18 00:30N 30°06' W 093°18'0 0.0
2018-Jun-18 00:00N 30°06' W 093°18'0 0.0
2018-Jun-17 23:30N 30°06' W 093°18'0 0.0
2018-Jun-17 23:00N 30°06' W 093°18'1 2.0
2018-Jun-17 22:30N 30°06' W 093°19'2 4.6
2018-Jun-17 22:00N 30°04' W 093°21'2 4.3
2018-Jun-17 21:30N 30°04' W 093°23'0 0.2
2018-Jun-17 21:00N 30°04' W 093°23'0 0.0
2018-Jun-17 20:30N 30°04' W 093°23'0 0.1
2018-Jun-17 20:00N 30°04' W 093°24'0 0.0
2018-Jun-17 19:30N 30°04' W 093°24'0 0.1
2018-Jun-17 19:00N 30°04' W 093°24'1 1.7
2018-Jun-17 18:30N 30°04' W 093°25'0 0.0
2018-Jun-17 18:00N 30°04' W 093°25'0 0.4
2018-Jun-17 17:31N 30°04' W 093°25'1 1.7
2018-Jun-17 17:00N 30°04' W 093°26'1 1.6
2018-Jun-17 16:30N 30°04' W 093°27'0 0.0
2018-Jun-17 15:58N 30°04' W 093°27'0 0.1
2018-Jun-17 15:28N 30°04' W 093°27'0 0.0
2018-Jun-17 15:00N 30°04' W 093°27'1 1.6
2018-Jun-17 14:30N 30°04' W 093°28'0 0.0
2018-Jun-17 13:57N 30°04' W 093°28'0 0.1
2018-Jun-17 13:30N 30°04' W 093°28'1 1.8
2018-Jun-17 13:00N 30°04' W 093°29'1 2.4
2018-Jun-17 12:28N 30°04' W 093°30'0 0.4
2018-Jun-17 12:00N 30°04' W 093°31'0 0.0
2018-Jun-17 11:30N 30°04' W 093°31'7 3.1
2018-Jun-17 09:15N 30°04' W 093°39'1 5.6
2018-Jun-17 08:59N 30°03' W 093°40'3 5.8
2018-Jun-17 08:30N 30°03' W 093°44'3 5.7
2018-Jun-17 08:00N 30°01' W 093°46'3 5.8
2018-Jun-17 07:30N 29°59' W 093°48'3 6.0
2018-Jun-17 07:01N 29°58' W 093°51'0 0.0
2018-Jun-17 06:30N 29°58' W 093°51'0 0.0
2018-Jun-17 06:00N 29°58' W 093°51'0 0.0
2018-Jun-17 05:31N 29°58' W 093°51'0 0.6
2018-Jun-17 04:59N 29°58' W 093°52'0 0.0
2018-Jun-17 04:31N 29°58' W 093°52'0 0.0
2018-Jun-17 04:00N 29°58' W 093°52'0 0.0
2018-Jun-17 03:31N 29°58' W 093°52'1 1.1
2018-Jun-17 02:59N 29°58' W 093°52'0 0.0
2018-Jun-17 02:31N 29°58' W 093°52'0 0.0
2018-Jun-17 02:01N 29°58' W 093°52'0 0.0
2018-Jun-17 01:30N 29°58' W 093°52'0 0.0
2018-Jun-17 00:58N 29°58' W 093°52'0 0.0
2018-Jun-17 00:26N 29°58' W 093°52'0 0.0
2018-Jun-17 00:00N 29°58' W 093°52'0 0.0
2018-Jun-16 23:30N 29°58' W 093°52'0 0.0
2018-Jun-16 23:01N 29°58' W 093°52'0 0.2
2018-Jun-16 22:30N 29°58' W 093°52'0 0.0
2018-Jun-16 22:00N 29°58' W 093°52'0 0.0
2018-Jun-16 21:30N 29°58' W 093°52'0 0.0
2018-Jun-16 21:00N 29°58' W 093°52'0 0.0
2018-Jun-16 20:30N 29°58' W 093°52'0 0.0
2018-Jun-16 20:01N 29°58' W 093°52'0 0.0
2018-Jun-16 19:30N 29°58' W 093°52'0 0.0
2018-Jun-16 19:00N 29°58' W 093°52'0 0.0
2018-Jun-16 18:30N 29°58' W 093°52'0 0.0
2018-Jun-16 18:01N 29°58' W 093°52'0 0.0
2018-Jun-16 17:30N 29°58' W 093°52'0 0.0
2018-Jun-16 17:00N 29°58' W 093°52'0 0.0
2018-Jun-16 16:30N 29°58' W 093°52'0 0.0
2018-Jun-16 16:00N 29°58' W 093°52'0 0.0
2018-Jun-16 15:30N 29°58' W 093°52'0 0.0
2018-Jun-16 15:00N 29°58' W 093°52'0 0.0
2018-Jun-16 14:30N 29°58' W 093°52'0 0.0
2018-Jun-16 14:00N 29°58' W 093°52'0 0.0
2018-Jun-16 13:30N 29°58' W 093°52'0 0.0
2018-Jun-16 13:00N 29°58' W 093°52'0 0.0
2018-Jun-16 12:30N 29°58' W 093°52'0 0.0
2018-Jun-16 12:00N 29°58' W 093°52'0 0.0
2018-Jun-16 11:30N 29°58' W 093°52'0 0.0
2018-Jun-16 11:00N 29°58' W 093°52'0 0.0
2018-Jun-16 10:30N 29°58' W 093°52'0 0.0
2018-Jun-16 10:00N 29°58' W 093°52'0 0.0
2018-Jun-16 09:30N 29°58' W 093°52'0 0.0
2018-Jun-16 09:00N 29°58' W 093°52'0 0.0
2018-Jun-16 08:29N 29°58' W 093°52'0 0.0
2018-Jun-16 08:00N 29°58' W 093°52'0 0.0
2018-Jun-16 07:30N 29°58' W 093°52'0 0.0
2018-Jun-16 07:00N 29°58' W 093°52'0 0.0
2018-Jun-16 06:31N 29°58' W 093°52'0 0.0
2018-Jun-16 05:59N 29°58' W 093°52'0 0.0
2018-Jun-16 05:28N 29°58' W 093°52'0 0.0
2018-Jun-16 05:00N 29°58' W 093°52'0 0.0
2018-Jun-16 04:30N 29°58' W 093°52'0 0.0
2018-Jun-16 04:00N 29°58' W 093°52'0 0.0
2018-Jun-16 03:31N 29°58' W 093°52'0 0.0
2018-Jun-16 03:01N 29°58' W 093°52'0 0.0
2018-Jun-16 02:30N 29°58' W 093°52'0 0.0
2018-Jun-16 02:00N 29°58' W 093°52'0 0.0
2018-Jun-16 01:30N 29°58' W 093°52'0 0.0
2018-Jun-16 01:00N 29°58' W 093°52'0 0.0
2018-Jun-16 00:30N 29°58' W 093°52'0 0.0
2018-Jun-16 00:00N 29°58' W 093°52'0 0.0
2018-Jun-15 23:31N 29°58' W 093°52'0 0.0
2018-Jun-15 23:01N 29°58' W 093°52'0 0.0
2018-Jun-15 22:30N 29°58' W 093°52'0 0.0
2018-Jun-15 22:00N 29°58' W 093°52'0 0.6
2018-Jun-15 21:30N 29°58' W 093°51'0 0.0
2018-Jun-15 21:00N 29°58' W 093°51'0 0.0
2018-Jun-15 20:30N 29°58' W 093°51'0 0.0
2018-Jun-15 20:01N 29°58' W 093°51'0 0.0
2018-Jun-15 19:30N 29°58' W 093°51'0 0.0
2018-Jun-15 19:01N 29°58' W 093°51'0 0.6
2018-Jun-15 18:30N 29°58' W 093°52'0 0.6
2018-Jun-15 18:01N 29°58' W 093°51'0 0.1
2018-Jun-15 17:30N 29°58' W 093°51'0 0.0
2018-Jun-15 17:01N 29°58' W 093°51'0 0.0
2018-Jun-15 16:30N 29°58' W 093°51'0 0.0
2018-Jun-15 16:00N 29°58' W 093°51'0 0.0
2018-Jun-15 15:30N 29°58' W 093°51'0 0.1
2018-Jun-15 15:00N 29°58' W 093°51'0 0.6
2018-Jun-15 14:31N 29°58' W 093°52'0 0.0
2018-Jun-15 14:00N 29°58' W 093°52'1 1.1
2018-Jun-15 13:30N 29°58' W 093°52'0 0.2
2018-Jun-15 13:00N 29°58' W 093°52'0 0.0
2018-Jun-15 12:30N 29°58' W 093°52'0 0.0
2018-Jun-15 12:00N 29°58' W 093°52'0 0.0
2018-Jun-15 11:31N 29°58' W 093°52'0 0.0
2018-Jun-15 11:00N 29°58' W 093°52'0 0.0
2018-Jun-15 10:30N 29°58' W 093°52'0 0.0
2018-Jun-15 10:00N 29°58' W 093°52'0 0.0
2018-Jun-15 09:30N 29°58' W 093°52'0 0.0
2018-Jun-15 09:01N 29°58' W 093°52'0 0.0
2018-Jun-15 08:28N 29°58' W 093°52'0 0.0
2018-Jun-15 08:00N 29°58' W 093°52'0 0.0
2018-Jun-15 07:30N 29°58' W 093°52'0 0.0
2018-Jun-15 07:00N 29°58' W 093°52'0 0.0
2018-Jun-15 06:29N 29°58' W 093°52'0 0.0
2018-Jun-15 06:00N 29°58' W 093°52'0 0.0
2018-Jun-15 05:30N 29°58' W 093°52'0 0.0
2018-Jun-15 05:00N 29°58' W 093°52'0 0.0
2018-Jun-15 04:30N 29°58' W 093°52'0 0.0
2018-Jun-15 04:00N 29°58' W 093°52'0 0.0
2018-Jun-15 03:30N 29°58' W 093°52'0 0.0
2018-Jun-15 03:01N 29°58' W 093°52'0 0.0
2018-Jun-15 02:30N 29°58' W 093°52'0 0.0
2018-Jun-15 01:59N 29°58' W 093°52'0 0.0
2018-Jun-15 01:30N 29°58' W 093°52'0 0.0
2018-Jun-15 01:00N 29°58' W 093°52'0 0.0
2018-Jun-15 00:28N 29°58' W 093°52'0 0.0
2018-Jun-15 00:00N 29°58' W 093°52'0 0.0
2018-Jun-14 23:31N 29°58' W 093°52'0 0.0
2018-Jun-14 23:00N 29°58' W 093°52'0 0.0
2018-Jun-14 22:30N 29°58' W 093°52'0 0.0
2018-Jun-14 22:00N 29°58' W 093°52'0 0.0
2018-Jun-14 21:30N 29°58' W 093°52'0 0.0
2018-Jun-14 21:00N 29°58' W 093°52'0 0.0
2018-Jun-14 20:31N 29°58' W 093°52'0 0.0
2018-Jun-14 20:01N 29°58' W 093°52'0 0.0
2018-Jun-14 19:30N 29°58' W 093°52'0 0.0
2018-Jun-14 19:00N 29°58' W 093°52'0 0.0
2018-Jun-14 18:30N 29°58' W 093°52'0 0.0
2018-Jun-14 18:00N 29°58' W 093°52'0 0.0
2018-Jun-14 17:30N 29°58' W 093°52'0 0.0
2018-Jun-14 16:59N 29°58' W 093°52'0 0.0
2018-Jun-14 16:30N 29°58' W 093°52'0 0.0
2018-Jun-14 16:01N 29°58' W 093°52'0 0.0
2018-Jun-14 15:30N 29°58' W 093°52'0 0.0
2018-Jun-14 15:01N 29°58' W 093°52'0 0.0
2018-Jun-14 14:28N 29°58' W 093°52'0 0.0
2018-Jun-14 14:00N 29°58' W 093°52'0 0.0
2018-Jun-14 13:29N 29°58' W 093°52'0 0.0
2018-Jun-14 13:00N 29°58' W 093°52'0 0.0
2018-Jun-14 12:30N 29°58' W 093°52'0 0.0
2018-Jun-14 12:01N 29°58' W 093°52'0 0.0
2018-Jun-14 11:30N 29°58' W 093°52'0 0.0
2018-Jun-14 10:59N 29°58' W 093°52'0 0.0
2018-Jun-14 10:30N 29°58' W 093°52'0 0.0
2018-Jun-14 10:00N 29°58' W 093°52'0 0.0
2018-Jun-14 09:30N 29°58' W 093°52'0 0.0
2018-Jun-14 09:00N 29°58' W 093°52'0 0.0
2018-Jun-14 08:29N 29°58' W 093°52'0 0.0
2018-Jun-14 08:00N 29°58' W 093°52'0 0.0
2018-Jun-14 07:30N 29°58' W 093°52'0 0.0
2018-Jun-14 06:59N 29°58' W 093°52'0 0.0
2018-Jun-14 06:30N 29°58' W 093°52'0 0.0
2018-Jun-14 06:00N 29°58' W 093°52'0 0.0
2018-Jun-14 05:30N 29°58' W 093°52'0 0.0
2018-Jun-14 05:00N 29°58' W 093°52'0 0.0
2018-Jun-14 04:30N 29°58' W 093°52'0 0.0
2018-Jun-14 03:59N 29°58' W 093°52'0 0.0
2018-Jun-14 03:30N 29°58' W 093°52'0 0.0
2018-Jun-14 03:00N 29°58' W 093°52'0 0.0
2018-Jun-14 02:30N 29°58' W 093°52'0 0.0
2018-Jun-14 02:00N 29°58' W 093°52'0 0.0
2018-Jun-14 01:30N 29°58' W 093°52'0 0.0
2018-Jun-14 01:00N 29°58' W 093°52'0 0.0
2018-Jun-14 00:30N 29°58' W 093°52'0 0.0
2018-Jun-14 00:00N 29°58' W 093°52'0 0.0
2018-Jun-13 23:30N 29°58' W 093°52'0 0.0
2018-Jun-13 23:00N 29°58' W 093°52'0 0.0
2018-Jun-13 22:30N 29°58' W 093°52'0 0.0
2018-Jun-13 22:00N 29°58' W 093°52'0 0.0
2018-Jun-13 21:30N 29°58' W 093°52'0 0.0
2018-Jun-13 21:00N 29°58' W 093°52'0 0.0
2018-Jun-13 20:30N 29°58' W 093°52'0 0.0
2018-Jun-13 20:00N 29°58' W 093°52'0 0.0
2018-Jun-13 19:30N 29°58' W 093°52'0 0.0
2018-Jun-13 19:00N 29°58' W 093°52'0 0.0
2018-Jun-13 18:30N 29°58' W 093°52'0 0.0
2018-Jun-13 18:00N 29°58' W 093°52'0 0.0
2018-Jun-13 17:30N 29°58' W 093°52'0 0.0
2018-Jun-13 17:00N 29°58' W 093°52'0 0.5
2018-Jun-13 16:30N 29°58' W 093°51'1 1.0
2018-Jun-13 16:00N 29°58' W 093°51'0 0.9
2018-Jun-13 15:29N 29°58' W 093°52'0 0.0
2018-Jun-13 14:58N 29°58' W 093°52'0 0.0
2018-Jun-13 14:30N 29°58' W 093°52'0 0.0
2018-Jun-13 14:00N 29°58' W 093°52'0 0.0
2018-Jun-13 13:29N 29°58' W 093°52'0 0.0
2018-Jun-13 13:00N 29°58' W 093°52'0 0.0
2018-Jun-13 12:29N 29°58' W 093°52'0 0.0
2018-Jun-13 11:59N 29°58' W 093°52'0 0.0
2018-Jun-13 11:30N 29°58' W 093°52'0 0.0
2018-Jun-13 11:00N 29°58' W 093°52'0 0.0
2018-Jun-13 10:30N 29°58' W 093°52'0 0.0
2018-Jun-13 10:00N 29°58' W 093°52'0 0.0
2018-Jun-13 09:27N 29°58' W 093°52'0 0.0
2018-Jun-13 08:52N 29°58' W 093°52'0 0.0
2018-Jun-13 08:30N 29°58' W 093°52'0 0.0
2018-Jun-13 08:00N 29°58' W 093°52'0 0.0
2018-Jun-13 07:30N 29°58' W 093°52'0 0.0
2018-Jun-13 07:00N 29°58' W 093°52'0 0.0
2018-Jun-13 06:30N 29°58' W 093°52'0 0.0
2018-Jun-13 06:00N 29°58' W 093°52'0 0.0
2018-Jun-13 05:26N 29°58' W 093°52'0 0.0
2018-Jun-13 05:00N 29°58' W 093°52'0 0.0
2018-Jun-13 04:26N 29°58' W 093°52'0 0.0
2018-Jun-13 03:59N 29°58' W 093°52'0 0.0
2018-Jun-13 03:28N 29°58' W 093°52'0 0.0
2018-Jun-13 03:00N 29°58' W 093°52'0 0.0
2018-Jun-13 02:30N 29°58' W 093°52'0 0.0
2018-Jun-13 02:00N 29°58' W 093°52'0 0.0
2018-Jun-13 01:28N 29°58' W 093°52'0 0.0
2018-Jun-13 01:00N 29°58' W 093°52'0 0.0
2018-Jun-13 00:28N 29°58' W 093°52'0 0.0
2018-Jun-13 00:00N 29°58' W 093°52'0 0.0
2018-Jun-12 23:30N 29°58' W 093°52'0 0.0
2018-Jun-12 23:00N 29°58' W 093°52'0 0.0
2018-Jun-12 22:30N 29°58' W 093°52'0 0.0
2018-Jun-12 21:55N 29°58' W 093°52'0 0.0
2018-Jun-12 21:30N 29°58' W 093°52'0 0.0
2018-Jun-12 21:00N 29°58' W 093°52'0 0.5
2018-Jun-12 20:31N 29°58' W 093°51'0 0.5
2018-Jun-12 20:00N 29°58' W 093°52'0 0.0
2018-Jun-12 19:30N 29°58' W 093°52'0 0.0
2018-Jun-12 19:00N 29°58' W 093°52'0 0.0
2018-Jun-12 18:29N 29°58' W 093°52'0 0.0
2018-Jun-12 18:00N 29°58' W 093°52'0 0.0
2018-Jun-12 17:30N 29°58' W 093°52'0 0.0
2018-Jun-12 17:00N 29°58' W 093°52'0 0.0
2018-Jun-12 16:30N 29°58' W 093°52'0 0.0
2018-Jun-12 16:00N 29°58' W 093°52'0 0.0
2018-Jun-12 15:30N 29°58' W 093°52'0 0.0
2018-Jun-12 15:00N 29°58' W 093°52'0 0.0
2018-Jun-12 14:30N 29°58' W 093°52'0 0.0
2018-Jun-12 14:00N 29°58' W 093°52'0 0.0
2018-Jun-12 13:30N 29°58' W 093°52'0 0.0
2018-Jun-12 12:59N 29°58' W 093°52'0 0.0
2018-Jun-12 12:30N 29°58' W 093°52'0 0.0
2018-Jun-12 12:00N 29°58' W 093°52'0 0.0
2018-Jun-12 11:30N 29°58' W 093°52'0 0.0
2018-Jun-12 11:00N 29°58' W 093°52'0 0.0
2018-Jun-12 10:30N 29°58' W 093°52'0 0.0
2018-Jun-12 09:58N 29°58' W 093°52'0 0.0
2018-Jun-12 09:30N 29°58' W 093°52'0 0.0
2018-Jun-12 09:00N 29°58' W 093°52'0 0.0
2018-Jun-12 08:29N 29°58' W 093°52'0 0.0
2018-Jun-12 07:59N 29°58' W 093°52'0 0.0
2018-Jun-12 07:30N 29°58' W 093°52'0 0.0
2018-Jun-12 06:58N 29°58' W 093°52'0 0.0
2018-Jun-12 06:30N 29°58' W 093°52'0 0.0
2018-Jun-12 06:00N 29°58' W 093°52'0 0.0
2018-Jun-12 05:30N 29°58' W 093°52'0 0.0
2018-Jun-12 05:00N 29°58' W 093°52'0 0.0
2018-Jun-12 04:30N 29°58' W 093°52'0 0.0
2018-Jun-12 03:58N 29°58' W 093°52'0 0.0
2018-Jun-12 03:29N 29°58' W 093°52'0 0.0
2018-Jun-12 03:00N 29°58' W 093°52'0 0.0
2018-Jun-12 02:30N 29°58' W 093°52'0 0.0
2018-Jun-12 02:00N 29°58' W 093°52'0 0.0
2018-Jun-12 01:29N 29°58' W 093°52'0 0.0
2018-Jun-12 01:00N 29°58' W 093°52'1 1.0
2018-Jun-12 00:28N 29°58' W 093°51'0 0.0
2018-Jun-11 23:56N 29°58' W 093°51'0 0.0
2018-Jun-11 23:30N 29°58' W 093°51'0 0.0
2018-Jun-11 23:00N 29°58' W 093°51'0 0.0
2018-Jun-11 22:30N 29°58' W 093°51'0 0.0
2018-Jun-11 22:00N 29°58' W 093°51'1 1.1
2018-Jun-11 21:30N 29°58' W 093°52'0 0.0
2018-Jun-11 21:00N 29°58' W 093°52'0 0.0
2018-Jun-11 20:29N 29°58' W 093°52'0 0.0
2018-Jun-11 20:00N 29°58' W 093°52'0 0.0
2018-Jun-11 19:30N 29°58' W 093°52'0 0.0
2018-Jun-11 19:00N 29°58' W 093°52'0 0.0
2018-Jun-11 18:30N 29°58' W 093°52'0 0.0
2018-Jun-11 18:00N 29°58' W 093°52'0 0.0
2018-Jun-11 17:30N 29°58' W 093°52'0 0.0
2018-Jun-11 16:59N 29°58' W 093°52'0 0.0
2018-Jun-11 16:30N 29°58' W 093°52'0 0.0
2018-Jun-11 16:00N 29°58' W 093°52'0 0.0
2018-Jun-11 15:30N 29°58' W 093°52'0 0.0
2018-Jun-11 15:00N 29°58' W 093°52'0 0.0
2018-Jun-11 14:30N 29°58' W 093°52'0 0.0
2018-Jun-11 14:00N 29°58' W 093°52'0 0.0
2018-Jun-11 13:30N 29°58' W 093°52'0 0.0
2018-Jun-11 13:00N 29°58' W 093°52'0 0.0
2018-Jun-11 12:30N 29°58' W 093°52'0 0.0
2018-Jun-11 12:00N 29°58' W 093°52'0 0.0
2018-Jun-11 11:29N 29°58' W 093°52'0 0.0
2018-Jun-11 11:00N 29°58' W 093°52'0 0.0
2018-Jun-11 10:30N 29°58' W 093°52'0 0.0
2018-Jun-11 10:00N 29°58' W 093°52'0 0.0
2018-Jun-11 09:30N 29°58' W 093°52'0 0.0
2018-Jun-11 09:00N 29°58' W 093°52'0 0.0
2018-Jun-11 08:30N 29°58' W 093°52'0 0.0
2018-Jun-11 08:00N 29°58' W 093°52'0 0.0
2018-Jun-11 07:30N 29°58' W 093°52'0 0.0
2018-Jun-11 07:00N 29°58' W 093°52'0 0.0
2018-Jun-11 06:30N 29°58' W 093°52'0 0.0
2018-Jun-11 06:00N 29°58' W 093°52'0 0.0
2018-Jun-11 05:30N 29°58' W 093°52'0 0.0
2018-Jun-11 05:00N 29°58' W 093°52'0 0.0
2018-Jun-11 04:30N 29°58' W 093°52'0 0.0
2018-Jun-11 04:00N 29°58' W 093°52'0 0.0
2018-Jun-11 03:30N 29°58' W 093°52'0 0.0
2018-Jun-11 03:00N 29°58' W 093°52'0 0.0
2018-Jun-11 02:30N 29°58' W 093°52'0 0.0
2018-Jun-11 02:00N 29°58' W 093°52'0 0.0
2018-Jun-11 01:30N 29°58' W 093°52'0 0.0
2018-Jun-11 01:00N 29°58' W 093°52'0 0.0
2018-Jun-11 00:30N 29°58' W 093°52'0 0.0
2018-Jun-11 00:00N 29°58' W 093°52'0 0.0
2018-Jun-10 23:30N 29°58' W 093°52'0 0.0
2018-Jun-10 23:00N 29°58' W 093°52'0 0.0
2018-Jun-10 22:30N 29°58' W 093°52'0 0.0
2018-Jun-10 22:00N 29°58' W 093°52'0 0.0
2018-Jun-10 21:30N 29°58' W 093°52'0 0.0
2018-Jun-10 21:00N 29°58' W 093°52'0 0.0
2018-Jun-10 20:30N 29°58' W 093°52'0 0.0
2018-Jun-10 20:00N 29°58' W 093°52'0 0.0
2018-Jun-10 19:30N 29°58' W 093°52'0 0.0
2018-Jun-10 18:58N 29°58' W 093°52'0 0.0
2018-Jun-10 18:30N 29°58' W 093°52'0 0.0
2018-Jun-10 18:00N 29°58' W 093°52'0 0.0
2018-Jun-10 17:30N 29°58' W 093°52'0 0.0
2018-Jun-10 17:00N 29°58' W 093°52'0 0.0
2018-Jun-10 16:30N 29°58' W 093°52'0 0.0
2018-Jun-10 16:00N 29°58' W 093°52'0 0.0
2018-Jun-10 15:30N 29°58' W 093°52'0 0.0
2018-Jun-10 14:59N 29°58' W 093°52'0 0.0
2018-Jun-10 14:30N 29°58' W 093°52'0 0.0
2018-Jun-10 13:30N 29°58' W 093°52'0 0.0
2018-Jun-10 13:00N 29°58' W 093°52'0 0.0
2018-Jun-10 12:30N 29°58' W 093°52'0 0.0
2018-Jun-10 12:00N 29°58' W 093°52'0 0.0
2018-Jun-10 11:30N 29°58' W 093°52'0 0.0
2018-Jun-10 11:00N 29°58' W 093°52'0 0.0
2018-Jun-10 10:30N 29°58' W 093°52'0 0.0
2018-Jun-10 10:00N 29°58' W 093°52'0 0.0
2018-Jun-10 09:30N 29°58' W 093°52'0 0.0
2018-Jun-10 09:00N 29°58' W 093°52'0 0.0
2018-Jun-10 08:30N 29°58' W 093°52'0 0.0
2018-Jun-10 08:00N 29°58' W 093°52'0 0.0
2018-Jun-10 07:28N 29°58' W 093°52'0 0.0
2018-Jun-10 07:00N 29°58' W 093°52'0 0.0
2018-Jun-10 06:30N 29°58' W 093°52'0 0.0
2018-Jun-10 06:00N 29°58' W 093°52'0 0.0
2018-Jun-10 05:30N 29°58' W 093°52'  
Track history (hours):
 
Tides and Currents Weather Stations Pressure Air Temp Water Temp Dewpoint Dewpoint Depression Visibility Wind Speed Wind Dir Waves Ship Positions

William

Owner: Enterprise Marine Services, LLC, San Antonio, TX. More information available from US FCC via Universal Licensing System and Coast Guard Vessel Documentation Center.

Last reported at 2018-Jun-20 05:05 UTC. Time now 2018-Jun-20 08:50 UTC.
Position N 29°33' W 090°26'.

Length 22 m; draft 2.7 m.

Type: Towing. MMSI: 367423260.

Date/timePositionNaut miles runAvg speedWind from/ knotsBaromVisibWave heightAir tempDewpointWater temp
2018-Jun-20 05:05N 29°33' W 090°26'2 5.9
2018-Jun-20 04:46N 29°34' W 090°28'2 6.6
2018-Jun-20 04:30N 29°34' W 090°30'3 6.5
2018-Jun-20 04:00N 29°34' W 090°34'3 5.2
2018-Jun-20 03:30N 29°35' W 090°37'3 6.3
2018-Jun-20 03:00N 29°36' W 090°40'2 4.3
2018-Jun-20 02:30N 29°36' W 090°43'3 5.0
2018-Jun-20 02:00N 29°34' W 090°44'1 1.4
2018-Jun-20 01:30N 29°34' W 090°44'1 1.5
2018-Jun-20 01:01N 29°33' W 090°45'0 0.7
2018-Jun-20 00:30N 29°33' W 090°45'1 1.8
2018-Jun-20 00:00N 29°32' W 090°46'65 4.7
2018-Jun-19 10:12N 29°50' W 091°57'1 6.4
2018-Jun-19 10:00N 29°50' W 091°59'3 6.8
2018-Jun-19 09:30N 29°49' W 092°02'3 6.1
2018-Jun-19 09:00N 29°48' W 092°06'3 5.8
2018-Jun-19 08:31N 29°47' W 092°09'2 4.9
2018-Jun-19 08:00N 29°47' W 092°12'1 2.5
2018-Jun-19 07:30N 29°47' W 092°13'1 1.1
2018-Jun-19 07:00N 29°48' W 092°14'0 0.0
2018-Jun-19 06:30N 29°48' W 092°14'0 0.0
2018-Jun-19 06:00N 29°48' W 092°14'0 0.4
2018-Jun-19 05:30N 29°48' W 092°14'0 0.6
2018-Jun-19 05:00N 29°48' W 092°14'1 1.0
2018-Jun-19 04:30N 29°48' W 092°15'0 0.0
2018-Jun-19 04:00N 29°48' W 092°15'0 0.0
2018-Jun-19 03:26N 29°48' W 092°15'0 0.0
2018-Jun-19 03:00N 29°48' W 092°15'0 0.0
2018-Jun-19 02:30N 29°48' W 092°15'0 0.7
2018-Jun-19 02:00N 29°48' W 092°15'0 0.9
2018-Jun-19 01:30N 29°48' W 092°16'0 0.9
2018-Jun-19 01:00N 29°49' W 092°16'0 0.0
2018-Jun-19 00:30N 29°49' W 092°16'0 0.0
2018-Jun-19 00:00N 29°49' W 092°16'0 0.0
2018-Jun-18 23:30N 29°49' W 092°16'0 0.0
2018-Jun-18 23:00N 29°49' W 092°16'1 1.1
2018-Jun-18 22:30N 29°49' W 092°17'0 0.2
2018-Jun-18 22:00N 29°49' W 092°17'0 0.0
2018-Jun-18 21:30N 29°49' W 092°17'0 0.1
2018-Jun-18 21:00N 29°49' W 092°17'2 3.2
2018-Jun-18 20:30N 29°50' W 092°18'0 0.2
2018-Jun-18 20:00N 29°50' W 092°18'0 0.0
2018-Jun-18 19:24N 29°50' W 092°18'0 0.1
2018-Jun-18 19:00N 29°50' W 092°18'0 0.0
2018-Jun-18 18:30N 29°50' W 092°18'1 1.2
2018-Jun-18 17:58N 29°50' W 092°19'1 3.1
2018-Jun-18 17:30N 29°51' W 092°20'41 5.6
2018-Jun-18 10:12N 29°56' W 093°07'1 5.4
2018-Jun-18 10:00N 29°56' W 093°08'3 5.0
2018-Jun-18 09:30N 29°57' W 093°11'3 5.0
2018-Jun-18 09:00N 29°59' W 093°12'3 5.2
2018-Jun-18 08:30N 30°01' W 093°14'2 3.5
2018-Jun-18 08:00N 30°02' W 093°16'2 3.4
2018-Jun-18 07:30N 30°04' W 093°16'2 3.7
2018-Jun-18 07:00N 30°05' W 093°18'0 0.5
2018-Jun-18 06:30N 30°05' W 093°18'0 1.0
2018-Jun-18 06:00N 30°06' W 093°18'0 0.0
2018-Jun-18 05:30N 30°06' W 093°18'0 0.0
2018-Jun-18 05:00N 30°06' W 093°18'0 0.0
2018-Jun-18 04:30N 30°06' W 093°18'0 0.0
2018-Jun-18 04:00N 30°06' W 093°18'0 0.0
2018-Jun-18 03:30N 30°06' W 093°18'0 0.0
2018-Jun-18 03:00N 30°06' W 093°18'0 0.1
2018-Jun-18 02:30N 30°06' W 093°18'0 0.0
2018-Jun-18 02:00N 30°06' W 093°18'0 0.0
2018-Jun-18 01:30N 30°06' W 093°18'0 0.0
2018-Jun-18 01:00N 30°06' W 093°18'0 0.0
2018-Jun-18 00:30N 30°06' W 093°18'0 0.0
2018-Jun-18 00:00N 30°06' W 093°18'0 0.0
2018-Jun-17 23:30N 30°06' W 093°18'0 0.0
2018-Jun-17 23:00N 30°06' W 093°18'1 2.0
2018-Jun-17 22:30N 30°06' W 093°19'2 4.6
2018-Jun-17 22:00N 30°04' W 093°21'2 4.3
2018-Jun-17 21:30N 30°04' W 093°23'0 0.2
2018-Jun-17 21:00N 30°04' W 093°23'0 0.0
2018-Jun-17 20:30N 30°04' W 093°23'0 0.1
2018-Jun-17 20:00N 30°04' W 093°24'0 0.0
2018-Jun-17 19:30N 30°04' W 093°24'0 0.1
2018-Jun-17 19:00N 30°04' W 093°24'1 1.7
2018-Jun-17 18:30N 30°04' W 093°25'0 0.0
2018-Jun-17 18:00N 30°04' W 093°25'0 0.4
2018-Jun-17 17:31N 30°04' W 093°25'1 1.7
2018-Jun-17 17:00N 30°04' W 093°26'1 1.6
2018-Jun-17 16:30N 30°04' W 093°27'0 0.0
2018-Jun-17 15:58N 30°04' W 093°27'0 0.1
2018-Jun-17 15:28N 30°04' W 093°27'0 0.0
2018-Jun-17 15:00N 30°04' W 093°27'1 1.6
2018-Jun-17 14:30N 30°04' W 093°28'0 0.0
2018-Jun-17 13:57N 30°04' W 093°28'0 0.1
2018-Jun-17 13:30N 30°04' W 093°28'1 1.8
2018-Jun-17 13:00N 30°04' W 093°29'1 2.4
2018-Jun-17 12:28N 30°04' W 093°30'0 0.4
2018-Jun-17 12:00N 30°04' W 093°31'0 0.0
2018-Jun-17 11:30N 30°04' W 093°31'7 3.1
2018-Jun-17 09:15N 30°04' W 093°39'1 5.6
2018-Jun-17 08:59N 30°03' W 093°40'3 5.8
2018-Jun-17 08:30N 30°03' W 093°44'3 5.7
2018-Jun-17 08:00N 30°01' W 093°46'3 5.8
2018-Jun-17 07:30N 29°59' W 093°48'3 6.0
2018-Jun-17 07:01N 29°58' W 093°51'0 0.0
2018-Jun-17 06:30N 29°58' W 093°51'0 0.0
2018-Jun-17 06:00N 29°58' W 093°51'0 0.0
2018-Jun-17 05:31N 29°58' W 093°51'0 0.6
2018-Jun-17 04:59N 29°58' W 093°52'0 0.0
2018-Jun-17 04:31N 29°58' W 093°52'0 0.0
2018-Jun-17 04:00N 29°58' W 093°52'0 0.0
2018-Jun-17 03:31N 29°58' W 093°52'1 1.1
2018-Jun-17 02:59N 29°58' W 093°52'0 0.0
2018-Jun-17 02:31N 29°58' W 093°52'0 0.0
2018-Jun-17 02:01N 29°58' W 093°52'0 0.0
2018-Jun-17 01:30N 29°58' W 093°52'0 0.0
2018-Jun-17 00:58N 29°58' W 093°52'0 0.0
2018-Jun-17 00:26N 29°58' W 093°52'0 0.0
2018-Jun-17 00:00N 29°58' W 093°52'0 0.0
2018-Jun-16 23:30N 29°58' W 093°52'0 0.0
2018-Jun-16 23:01N 29°58' W 093°52'0 0.2
2018-Jun-16 22:30N 29°58' W 093°52'0 0.0
2018-Jun-16 22:00N 29°58' W 093°52'0 0.0
2018-Jun-16 21:30N 29°58' W 093°52'0 0.0
2018-Jun-16 21:00N 29°58' W 093°52'0 0.0
2018-Jun-16 20:30N 29°58' W 093°52'0 0.0
2018-Jun-16 20:01N 29°58' W 093°52'0 0.0
2018-Jun-16 19:30N 29°58' W 093°52'0 0.0
2018-Jun-16 19:00N 29°58' W 093°52'0 0.0
2018-Jun-16 18:30N 29°58' W 093°52'0 0.0
2018-Jun-16 18:01N 29°58' W 093°52'0 0.0
2018-Jun-16 17:30N 29°58' W 093°52'0 0.0
2018-Jun-16 17:00N 29°58' W 093°52'0 0.0
2018-Jun-16 16:30N 29°58' W 093°52'0 0.0
2018-Jun-16 16:00N 29°58' W 093°52'0 0.0
2018-Jun-16 15:30N 29°58' W 093°52'0 0.0
2018-Jun-16 15:00N 29°58' W 093°52'0 0.0
2018-Jun-16 14:30N 29°58' W 093°52'0 0.0
2018-Jun-16 14:00N 29°58' W 093°52'0 0.0
2018-Jun-16 13:30N 29°58' W 093°52'0 0.0
2018-Jun-16 13:00N 29°58' W 093°52'0 0.0
2018-Jun-16 12:30N 29°58' W 093°52'0 0.0
2018-Jun-16 12:00N 29°58' W 093°52'0 0.0
2018-Jun-16 11:30N 29°58' W 093°52'0 0.0
2018-Jun-16 11:00N 29°58' W 093°52'0 0.0
2018-Jun-16 10:30N 29°58' W 093°52'0 0.0
2018-Jun-16 10:00N 29°58' W 093°52'0 0.0
2018-Jun-16 09:30N 29°58' W 093°52'0 0.0
2018-Jun-16 09:00N 29°58' W 093°52'0 0.0
2018-Jun-16 08:29N 29°58' W 093°52'0 0.0
2018-Jun-16 08:00N 29°58' W 093°52'0 0.0
2018-Jun-16 07:30N 29°58' W 093°52'0 0.0
2018-Jun-16 07:00N 29°58' W 093°52'0 0.0
2018-Jun-16 06:31N 29°58' W 093°52'0 0.0
2018-Jun-16 05:59N 29°58' W 093°52'0 0.0
2018-Jun-16 05:28N 29°58' W 093°52'0 0.0
2018-Jun-16 05:00N 29°58' W 093°52'0 0.0
2018-Jun-16 04:30N 29°58' W 093°52'0 0.0
2018-Jun-16 04:00N 29°58' W 093°52'0 0.0
2018-Jun-16 03:31N 29°58' W 093°52'0 0.0
2018-Jun-16 03:01N 29°58' W 093°52'0 0.0
2018-Jun-16 02:30N 29°58' W 093°52'0 0.0
2018-Jun-16 02:00N 29°58' W 093°52'0 0.0
2018-Jun-16 01:30N 29°58' W 093°52'0 0.0
2018-Jun-16 01:00N 29°58' W 093°52'0 0.0
2018-Jun-16 00:30N 29°58' W 093°52'0 0.0
2018-Jun-16 00:00N 29°58' W 093°52'0 0.0
2018-Jun-15 23:31N 29°58' W 093°52'0 0.0
2018-Jun-15 23:01N 29°58' W 093°52'0 0.0
2018-Jun-15 22:30N 29°58' W 093°52'0 0.0
2018-Jun-15 22:00N 29°58' W 093°52'0 0.6
2018-Jun-15 21:30N 29°58' W 093°51'0 0.0
2018-Jun-15 21:00N 29°58' W 093°51'0 0.0
2018-Jun-15 20:30N 29°58' W 093°51'0 0.0
2018-Jun-15 20:01N 29°58' W 093°51'0 0.0
2018-Jun-15 19:30N 29°58' W 093°51'0 0.0
2018-Jun-15 19:01N 29°58' W 093°51'0 0.6
2018-Jun-15 18:30N 29°58' W 093°52'0 0.6
2018-Jun-15 18:01N 29°58' W 093°51'0 0.1
2018-Jun-15 17:30N 29°58' W 093°51'0 0.0
2018-Jun-15 17:01N 29°58' W 093°51'0 0.0
2018-Jun-15 16:30N 29°58' W 093°51'0 0.0
2018-Jun-15 16:00N 29°58' W 093°51'0 0.0
2018-Jun-15 15:30N 29°58' W 093°51'0 0.1
2018-Jun-15 15:00N 29°58' W 093°51'0 0.6
2018-Jun-15 14:31N 29°58' W 093°52'0 0.0
2018-Jun-15 14:00N 29°58' W 093°52'1 1.1
2018-Jun-15 13:30N 29°58' W 093°52'0 0.2
2018-Jun-15 13:00N 29°58' W 093°52'0 0.0
2018-Jun-15 12:30N 29°58' W 093°52'0 0.0
2018-Jun-15 12:00N 29°58' W 093°52'0 0.0
2018-Jun-15 11:31N 29°58' W 093°52'0 0.0
2018-Jun-15 11:00N 29°58' W 093°52'0 0.0
2018-Jun-15 10:30N 29°58' W 093°52'0 0.0
2018-Jun-15 10:00N 29°58' W 093°52'0 0.0
2018-Jun-15 09:30N 29°58' W 093°52'0 0.0
2018-Jun-15 09:01N 29°58' W 093°52'0 0.0
2018-Jun-15 08:28N 29°58' W 093°52'0 0.0
2018-Jun-15 08:00N 29°58' W 093°52'0 0.0
2018-Jun-15 07:30N 29°58' W 093°52'0 0.0
2018-Jun-15 07:00N 29°58' W 093°52'0 0.0
2018-Jun-15 06:29N 29°58' W 093°52'0 0.0
2018-Jun-15 06:00N 29°58' W 093°52'0 0.0
2018-Jun-15 05:30N 29°58' W 093°52'0 0.0
2018-Jun-15 05:00N 29°58' W 093°52'0 0.0
2018-Jun-15 04:30N 29°58' W 093°52'0 0.0
2018-Jun-15 04:00N 29°58' W 093°52'0 0.0
2018-Jun-15 03:30N 29°58' W 093°52'0 0.0
2018-Jun-15 03:01N 29°58' W 093°52'0 0.0
2018-Jun-15 02:30N 29°58' W 093°52'0 0.0
2018-Jun-15 01:59N 29°58' W 093°52'0 0.0
2018-Jun-15 01:30N 29°58' W 093°52'0 0.0
2018-Jun-15 01:00N 29°58' W 093°52'0 0.0
2018-Jun-15 00:28N 29°58' W 093°52'0 0.0
2018-Jun-15 00:00N 29°58' W 093°52'0 0.0
2018-Jun-14 23:31N 29°58' W 093°52'0 0.0
2018-Jun-14 23:00N 29°58' W 093°52'0 0.0
2018-Jun-14 22:30N 29°58' W 093°52'0 0.0
2018-Jun-14 22:00N 29°58' W 093°52'0 0.0
2018-Jun-14 21:30N 29°58' W 093°52'0 0.0
2018-Jun-14 21:00N 29°58' W 093°52'0 0.0
2018-Jun-14 20:31N 29°58' W 093°52'0 0.0
2018-Jun-14 20:01N 29°58' W 093°52'0 0.0
2018-Jun-14 19:30N 29°58' W 093°52'0 0.0
2018-Jun-14 19:00N 29°58' W 093°52'0 0.0
2018-Jun-14 18:30N 29°58' W 093°52'0 0.0
2018-Jun-14 18:00N 29°58' W 093°52'0 0.0
2018-Jun-14 17:30N 29°58' W 093°52'0 0.0
2018-Jun-14 16:59N 29°58' W 093°52'0 0.0
2018-Jun-14 16:30N 29°58' W 093°52'0 0.0
2018-Jun-14 16:01N 29°58' W 093°52'0 0.0
2018-Jun-14 15:30N 29°58' W 093°52'0 0.0
2018-Jun-14 15:01N 29°58' W 093°52'0 0.0
2018-Jun-14 14:28N 29°58' W 093°52'0 0.0
2018-Jun-14 14:00N 29°58' W 093°52'0 0.0
2018-Jun-14 13:29N 29°58' W 093°52'0 0.0
2018-Jun-14 13:00N 29°58' W 093°52'0 0.0
2018-Jun-14 12:30N 29°58' W 093°52'0 0.0
2018-Jun-14 12:01N 29°58' W 093°52'0 0.0
2018-Jun-14 11:30N 29°58' W 093°52'0 0.0
2018-Jun-14 10:59N 29°58' W 093°52'0 0.0
2018-Jun-14 10:30N 29°58' W 093°52'0 0.0
2018-Jun-14 10:00N 29°58' W 093°52'0 0.0
2018-Jun-14 09:30N 29°58' W 093°52'0 0.0
2018-Jun-14 09:00N 29°58' W 093°52'0 0.0
2018-Jun-14 08:29N 29°58' W 093°52'0 0.0
2018-Jun-14 08:00N 29°58' W 093°52'0 0.0
2018-Jun-14 07:30N 29°58' W 093°52'0 0.0
2018-Jun-14 06:59N 29°58' W 093°52'0 0.0
2018-Jun-14 06:30N 29°58' W 093°52'0 0.0
2018-Jun-14 06:00N 29°58' W 093°52'0 0.0
2018-Jun-14 05:30N 29°58' W 093°52'0 0.0
2018-Jun-14 05:00N 29°58' W 093°52'0 0.0
2018-Jun-14 04:30N 29°58' W 093°52'0 0.0
2018-Jun-14 03:59N 29°58' W 093°52'0 0.0
2018-Jun-14 03:30N 29°58' W 093°52'0 0.0
2018-Jun-14 03:00N 29°58' W 093°52'0 0.0
2018-Jun-14 02:30N 29°58' W 093°52'0 0.0
2018-Jun-14 02:00N 29°58' W 093°52'0 0.0
2018-Jun-14 01:30N 29°58' W 093°52'0 0.0
2018-Jun-14 01:00N 29°58' W 093°52'0 0.0
2018-Jun-14 00:30N 29°58' W 093°52'0 0.0
2018-Jun-14 00:00N 29°58' W 093°52'0 0.0
2018-Jun-13 23:30N 29°58' W 093°52'0 0.0
2018-Jun-13 23:00N 29°58' W 093°52'0 0.0
2018-Jun-13 22:30N 29°58' W 093°52'0 0.0
2018-Jun-13 22:00N 29°58' W 093°52'0 0.0
2018-Jun-13 21:30N 29°58' W 093°52'0 0.0
2018-Jun-13 21:00N 29°58' W 093°52'0 0.0
2018-Jun-13 20:30N 29°58' W 093°52'0 0.0
2018-Jun-13 20:00N 29°58' W 093°52'0 0.0
2018-Jun-13 19:30N 29°58' W 093°52'0 0.0
2018-Jun-13 19:00N 29°58' W 093°52'0 0.0
2018-Jun-13 18:30N 29°58' W 093°52'0 0.0
2018-Jun-13 18:00N 29°58' W 093°52'0 0.0
2018-Jun-13 17:30N 29°58' W 093°52'0 0.0
2018-Jun-13 17:00N 29°58' W 093°52'0 0.5
2018-Jun-13 16:30N 29°58' W 093°51'1 1.0
2018-Jun-13 16:00N 29°58' W 093°51'0 0.9
2018-Jun-13 15:29N 29°58' W 093°52'0 0.0
2018-Jun-13 14:58N 29°58' W 093°52'0 0.0
2018-Jun-13 14:30N 29°58' W 093°52'0 0.0
2018-Jun-13 14:00N 29°58' W 093°52'0 0.0
2018-Jun-13 13:29N 29°58' W 093°52'0 0.0
2018-Jun-13 13:00N 29°58' W 093°52'0 0.0
2018-Jun-13 12:29N 29°58' W 093°52'0 0.0
2018-Jun-13 11:59N 29°58' W 093°52'0 0.0
2018-Jun-13 11:30N 29°58' W 093°52'0 0.0
2018-Jun-13 11:00N 29°58' W 093°52'0 0.0
2018-Jun-13 10:30N 29°58' W 093°52'0 0.0
2018-Jun-13 10:00N 29°58' W 093°52'0 0.0
2018-Jun-13 09:27N 29°58' W 093°52'0 0.0
2018-Jun-13 08:52N 29°58' W 093°52'0 0.0
2018-Jun-13 08:30N 29°58' W 093°52'0 0.0
2018-Jun-13 08:00N 29°58' W 093°52'0 0.0
2018-Jun-13 07:30N 29°58' W 093°52'0 0.0
2018-Jun-13 07:00N 29°58' W 093°52'0 0.0
2018-Jun-13 06:30N 29°58' W 093°52'0 0.0
2018-Jun-13 06:00N 29°58' W 093°52'0 0.0
2018-Jun-13 05:26N 29°58' W 093°52'0 0.0
2018-Jun-13 05:00N 29°58' W 093°52'0 0.0
2018-Jun-13 04:26N 29°58' W 093°52'0 0.0
2018-Jun-13 03:59N 29°58' W 093°52'0 0.0
2018-Jun-13 03:28N 29°58' W 093°52'0 0.0
2018-Jun-13 03:00N 29°58' W 093°52'0 0.0
2018-Jun-13 02:30N 29°58' W 093°52'0 0.0
2018-Jun-13 02:00N 29°58' W 093°52'0 0.0
2018-Jun-13 01:28N 29°58' W 093°52'0 0.0
2018-Jun-13 01:00N 29°58' W 093°52'0 0.0
2018-Jun-13 00:28N 29°58' W 093°52'0 0.0
2018-Jun-13 00:00N 29°58' W 093°52'0 0.0
2018-Jun-12 23:30N 29°58' W 093°52'0 0.0
2018-Jun-12 23:00N 29°58' W 093°52'0 0.0
2018-Jun-12 22:30N 29°58' W 093°52'0 0.0
2018-Jun-12 21:55N 29°58' W 093°52'0 0.0
2018-Jun-12 21:30N 29°58' W 093°52'0 0.0
2018-Jun-12 21:00N 29°58' W 093°52'0 0.5
2018-Jun-12 20:31N 29°58' W 093°51'0 0.5
2018-Jun-12 20:00N 29°58' W 093°52'0 0.0
2018-Jun-12 19:30N 29°58' W 093°52'0 0.0
2018-Jun-12 19:00N 29°58' W 093°52'0 0.0
2018-Jun-12 18:29N 29°58' W 093°52'0 0.0
2018-Jun-12 18:00N 29°58' W 093°52'0 0.0
2018-Jun-12 17:30N 29°58' W 093°52'0 0.0
2018-Jun-12 17:00N 29°58' W 093°52'0 0.0
2018-Jun-12 16:30N 29°58' W 093°52'0 0.0
2018-Jun-12 16:00N 29°58' W 093°52'0 0.0
2018-Jun-12 15:30N 29°58' W 093°52'0 0.0
2018-Jun-12 15:00N 29°58' W 093°52'0 0.0
2018-Jun-12 14:30N 29°58' W 093°52'0 0.0
2018-Jun-12 14:00N 29°58' W 093°52'0 0.0
2018-Jun-12 13:30N 29°58' W 093°52'0 0.0
2018-Jun-12 12:59N 29°58' W 093°52'0 0.0
2018-Jun-12 12:30N 29°58' W 093°52'0 0.0
2018-Jun-12 12:00N 29°58' W 093°52'0 0.0
2018-Jun-12 11:30N 29°58' W 093°52'0 0.0
2018-Jun-12 11:00N 29°58' W 093°52'0 0.0
2018-Jun-12 10:30N 29°58' W 093°52'0 0.0
2018-Jun-12 09:58N 29°58' W 093°52'0 0.0
2018-Jun-12 09:30N 29°58' W 093°52'0 0.0
2018-Jun-12 09:00N 29°58' W 093°52'0 0.0
2018-Jun-12 08:29N 29°58' W 093°52'0 0.0
2018-Jun-12 07:59N 29°58' W 093°52'0 0.0
2018-Jun-12 07:30N 29°58' W 093°52'0 0.0
2018-Jun-12 06:58N 29°58' W 093°52'0 0.0
2018-Jun-12 06:30N 29°58' W 093°52'0 0.0
2018-Jun-12 06:00N 29°58' W 093°52'0 0.0
2018-Jun-12 05:30N 29°58' W 093°52'0 0.0
2018-Jun-12 05:00N 29°58' W 093°52'0 0.0
2018-Jun-12 04:30N 29°58' W 093°52'0 0.0
2018-Jun-12 03:58N 29°58' W 093°52'0 0.0
2018-Jun-12 03:29N 29°58' W 093°52'0 0.0
2018-Jun-12 03:00N 29°58' W 093°52'0 0.0
2018-Jun-12 02:30N 29°58' W 093°52'0 0.0
2018-Jun-12 02:00N 29°58' W 093°52'0 0.0
2018-Jun-12 01:29N 29°58' W 093°52'0 0.0
2018-Jun-12 01:00N 29°58' W 093°52'1 1.0
2018-Jun-12 00:28N 29°58' W 093°51'0 0.0
2018-Jun-11 23:56N 29°58' W 093°51'0 0.0
2018-Jun-11 23:30N 29°58' W 093°51'0 0.0
2018-Jun-11 23:00N 29°58' W 093°51'0 0.0
2018-Jun-11 22:30N 29°58' W 093°51'0 0.0
2018-Jun-11 22:00N 29°58' W 093°51'1 1.1
2018-Jun-11 21:30N 29°58' W 093°52'0 0.0
2018-Jun-11 21:00N 29°58' W 093°52'0 0.0
2018-Jun-11 20:29N 29°58' W 093°52'0 0.0
2018-Jun-11 20:00N 29°58' W 093°52'0 0.0
2018-Jun-11 19:30N 29°58' W 093°52'0 0.0
2018-Jun-11 19:00N 29°58' W 093°52'0 0.0
2018-Jun-11 18:30N 29°58' W 093°52'0 0.0
2018-Jun-11 18:00N 29°58' W 093°52'0 0.0
2018-Jun-11 17:30N 29°58' W 093°52'0 0.0
2018-Jun-11 16:59N 29°58' W 093°52'0 0.0
2018-Jun-11 16:30N 29°58' W 093°52'0 0.0
2018-Jun-11 16:00N 29°58' W 093°52'0 0.0
2018-Jun-11 15:30N 29°58' W 093°52'0 0.0
2018-Jun-11 15:00N 29°58' W 093°52'0 0.0
2018-Jun-11 14:30N 29°58' W 093°52'0 0.0
2018-Jun-11 14:00N 29°58' W 093°52'0 0.0
2018-Jun-11 13:30N 29°58' W 093°52'0 0.0
2018-Jun-11 13:00N 29°58' W 093°52'0 0.0
2018-Jun-11 12:30N 29°58' W 093°52'0 0.0
2018-Jun-11 12:00N 29°58' W 093°52'0 0.0
2018-Jun-11 11:29N 29°58' W 093°52'0 0.0
2018-Jun-11 11:00N 29°58' W 093°52'0 0.0
2018-Jun-11 10:30N 29°58' W 093°52'0 0.0
2018-Jun-11 10:00N 29°58' W 093°52'0 0.0
2018-Jun-11 09:30N 29°58' W 093°52'0 0.0
2018-Jun-11 09:00N 29°58' W 093°52'0 0.0
2018-Jun-11 08:30N 29°58' W 093°52'0 0.0
2018-Jun-11 08:00N 29°58' W 093°52'0 0.0
2018-Jun-11 07:30N 29°58' W 093°52'0 0.0
2018-Jun-11 07:00N 29°58' W 093°52'0 0.0
2018-Jun-11 06:30N 29°58' W 093°52'0 0.0
2018-Jun-11 06:00N 29°58' W 093°52'0 0.0
2018-Jun-11 05:30N 29°58' W 093°52'0 0.0
2018-Jun-11 05:00N 29°58' W 093°52'0 0.0
2018-Jun-11 04:30N 29°58' W 093°52'0 0.0
2018-Jun-11 04:00N 29°58' W 093°52'0 0.0
2018-Jun-11 03:30N 29°58' W 093°52'0 0.0
2018-Jun-11 03:00N 29°58' W 093°52'0 0.0
2018-Jun-11 02:30N 29°58' W 093°52'0 0.0
2018-Jun-11 02:00N 29°58' W 093°52'0 0.0
2018-Jun-11 01:30N 29°58' W 093°52'0 0.0
2018-Jun-11 01:00N 29°58' W 093°52'0 0.0
2018-Jun-11 00:30N 29°58' W 093°52'0 0.0
2018-Jun-11 00:00N 29°58' W 093°52'0 0.0
2018-Jun-10 23:30N 29°58' W 093°52'0 0.0
2018-Jun-10 23:00N 29°58' W 093°52'0 0.0
2018-Jun-10 22:30N 29°58' W 093°52'0 0.0
2018-Jun-10 22:00N 29°58' W 093°52'0 0.0
2018-Jun-10 21:30N 29°58' W 093°52'0 0.0
2018-Jun-10 21:00N 29°58' W 093°52'0 0.0
2018-Jun-10 20:30N 29°58' W 093°52'0 0.0
2018-Jun-10 20:00N 29°58' W 093°52'0 0.0
2018-Jun-10 19:30N 29°58' W 093°52'0 0.0
2018-Jun-10 18:58N 29°58' W 093°52'0 0.0
2018-Jun-10 18:30N 29°58' W 093°52'0 0.0
2018-Jun-10 18:00N 29°58' W 093°52'0 0.0
2018-Jun-10 17:30N 29°58' W 093°52'0 0.0
2018-Jun-10 17:00N 29°58' W 093°52'0 0.0
2018-Jun-10 16:30N 29°58' W 093°52'0 0.0
2018-Jun-10 16:00N 29°58' W 093°52'0 0.0
2018-Jun-10 15:30N 29°58' W 093°52'0 0.0
2018-Jun-10 14:59N 29°58' W 093°52'0 0.0
2018-Jun-10 14:30N 29°58' W 093°52'0 0.0
2018-Jun-10 13:30N 29°58' W 093°52'0 0.0
2018-Jun-10 13:00N 29°58' W 093°52'0 0.0
2018-Jun-10 12:30N 29°58' W 093°52'0 0.0
2018-Jun-10 12:00N 29°58' W 093°52'0 0.0
2018-Jun-10 11:30N 29°58' W 093°52'0 0.0
2018-Jun-10 11:00N 29°58' W 093°52'0 0.0
2018-Jun-10 10:30N 29°58' W 093°52'0 0.0
2018-Jun-10 10:00N 29°58' W 093°52'0 0.0
2018-Jun-10 09:30N 29°58' W 093°52'0 0.0
2018-Jun-10 09:00N 29°58' W 093°52'0 0.0
2018-Jun-10 08:30N 29°58' W 093°52'0 0.0
2018-Jun-10 08:00N 29°58' W 093°52'0 0.0
2018-Jun-10 07:28N 29°58' W 093°52'0 0.0
2018-Jun-10 07:00N 29°58' W 093°52'0 0.0
2018-Jun-10 06:30N 29°58' W 093°52'0 0.0
2018-Jun-10 06:00N 29°58' W 093°52'0 0.0
2018-Jun-10 05:30N 29°58' W 093°52'  

Dump ship's entire track history